Time;durP1;ratioP1;P1;durP2;ratioP2;P2;SDS_P1;SDS_P2;PMS_P1;PMS_P2;Temp;Humidity;BMP_temperature;BMP_pressure;BME280_temperature;BME280_humidity;BME280_pressure;Samples;Min_cycle;Max_cycle;Signal;HPM_P1;HPM_P2
2022/11/22 00:00:19;;;;;;;34.70;20.93;;;;;;;2.65;100.00;99604.41;1475819;87;22039;-79
2022/11/22 00:02:45;;;;;;;37.27;24.20;;;;;;;2.61;100.00;99591.69;1499856;86;22439;-80
2022/11/22 00:05:11;;;;;;;33.77;22.20;;;;;;;2.61;100.00;99591.69;1500202;86;23894;-79
2022/11/22 00:07:38;;;;;;;32.53;22.87;;;;;;;2.60;100.00;99592.16;1462516;89;22602;-79
2022/11/22 00:10:06;;;;;;;33.20;21.83;;;;;;;2.65;100.00;99600.48;1460458;87;23035;-79
2022/11/22 00:12:33;;;;;;;34.50;22.67;;;;;;;2.60;100.00;99592.64;1488734;87;22088;-80
2022/11/22 00:14:59;;;;;;;31.77;21.33;;;;;;;2.61;100.00;99602.96;1497294;86;21934;-81
2022/11/22 00:17:25;;;;;;;36.03;23.83;;;;;;;2.59;100.00;99604.02;1436079;88;22110;-80
2022/11/22 00:19:51;;;;;;;34.77;22.23;;;;;;;2.54;100.00;99593.94;1488168;86;22068;-78
2022/11/22 00:22:18;;;;;;;35.93;23.10;;;;;;;2.54;100.00;99603.09;1464450;89;23209;-77
2022/11/22 00:24:45;;;;;;;29.00;19.93;;;;;;;2.53;100.00;99598.78;1496931;86;22331;-77
2022/11/22 00:27:11;;;;;;;33.33;22.30;;;;;;;2.50;100.00;99600.33;1493789;86;22005;-79
2022/11/22 00:29:37;;;;;;;30.27;20.20;;;;;;;2.50;100.00;99604.25;1478604;87;22103;-79
2022/11/22 00:32:04;;;;;;;32.23;21.97;;;;;;;2.48;100.00;99601.77;1493169;86;22071;-79
2022/11/22 00:34:29;;;;;;;32.00;20.83;;;;;;;2.49;100.00;99604.73;1487265;86;22327;-77
2022/11/22 00:36:55;;;;;;;35.00;21.77;;;;;;;2.51;100.00;99608.55;1444463;89;22144;-79
2022/11/22 00:39:21;;;;;;;38.33;25.23;;;;;;;2.51;100.00;99610.33;1468742;88;21400;-79
2022/11/22 00:41:47;;;;;;;34.43;22.13;;;;;;;2.49;100.00;99609.95;1461353;89;21369;-79
2022/11/22 00:44:13;;;;;;;34.03;21.83;;;;;;;2.47;100.00;99614.93;1485107;87;22013;-78
2022/11/22 00:46:39;;;;;;;31.13;21.47;;;;;;;2.48;100.00;99603.55;1485124;87;22395;-78
2022/11/22 00:49:05;;;;;;;32.37;22.27;;;;;;;2.48;100.00;99603.55;1438160;89;22087;-78
2022/11/22 00:51:31;;;;;;;30.23;22.17;;;;;;;2.51;100.00;99621.61;1456094;89;21277;-78
2022/11/22 00:53:57;;;;;;;33.10;21.80;;;;;;;2.50;100.00;99617.31;1462280;89;21395;-77
2022/11/22 00:56:23;;;;;;;31.83;21.83;;;;;;;2.50;100.00;99623.84;1463185;89;23002;-79
2022/11/22 00:58:49;;;;;;;31.33;21.90;;;;;;;2.44;100.00;99619.91;1455940;89;21454;-79
2022/11/22 01:01:15;;;;;;;38.77;24.47;;;;;;;2.39;100.00;99634.28;1458920;89;21380;-79
2022/11/22 01:03:41;;;;;;;35.57;23.77;;;;;;;2.39;100.00;99641.64;1457390;89;21373;-79
2022/11/22 01:06:07;;;;;;;34.30;22.80;;;;;;;2.38;100.00;99646.97;1458155;88;22090;-80
2022/11/22 01:08:34;;;;;;;37.03;24.37;;;;;;;2.44;100.00;99643.41;1431676;89;21343;-80
2022/11/22 01:11:01;;;;;;;32.13;19.73;;;;;;;2.44;100.00;99648.64;1453505;86;21891;-79
2022/11/22 01:13:28;;;;;;;31.53;22.10;;;;;;;2.45;100.00;99645.58;1466158;86;22553;-78
2022/11/22 01:16:04;;;;;;;30.30;21.10;;;;;;;2.45;100.00;99645.58;1483375;86;22228;-77
2022/11/22 01:18:31;;;;;;;33.67;20.57;;;;;;;2.52;100.00;99654.60;1490711;86;23755;-79
2022/11/22 01:20:57;;;;;;;34.43;22.03;;;;;;;2.55;100.00;99655.67;1470812;86;22111;-79
2022/11/22 01:23:23;;;;;;;35.87;24.97;;;;;;;2.55;100.00;99655.67;1451342;89;22127;-79
2022/11/22 01:25:50;;;;;;;31.03;21.87;;;;;;;2.60;100.00;99648.33;1453961;86;22069;-79
2022/11/22 01:28:17;;;;;;;30.93;20.93;;;;;;;2.62;100.00;99658.68;1433791;86;22046;-79
2022/11/22 01:30:43;;;;;;;35.87;24.13;;;;;;;2.63;100.00;99641.56;1463567;86;22635;-79
2022/11/22 01:33:10;;;;;;;30.20;20.90;;;;;;;2.69;100.00;99646.80;1460507;88;22098;-78
2022/11/22 01:35:36;;;;;;;31.33;21.57;;;;;;;2.90;100.00;99655.61;1475971;86;21372;-79
2022/11/22 01:38:02;;;;;;;35.77;22.67;;;;;;;2.90;100.00;99655.61;1494206;86;23825;-76
2022/11/22 01:40:28;;;;;;;36.97;22.17;;;;;;;3.03;100.00;99658.13;1491803;86;21986;-77
2022/11/22 01:42:58;;;;;;;37.63;22.47;;;;;;;3.03;100.00;99658.13;1511292;86;22031;-78
2022/11/22 01:45:33;;;;;;;30.97;20.12;;;;;;;3.05;100.00;99657.55;1417366;92;22067;-78
2022/11/22 01:48:07;;;;;;;31.97;22.37;;;;;;;3.04;100.00;99661.09;1479325;87;21490;-78
2022/11/22 01:50:37;;;;;;;36.27;22.83;;;;;;;3.03;100.00;99663.36;1467060;86;22131;-78
2022/11/22 01:53:11;;;;;;;29.13;20.53;;;;;;;3.03;100.00;99662.05;1484452;87;22820;-78
2022/11/22 01:55:38;;;;;;;31.40;21.27;;;;;;;3.02;100.00;99673.47;1486328;86;22161;-78
2022/11/22 01:58:04;;;;;;;29.57;19.67;;;;;;;2.95;100.00;99672.26;1469986;86;22878;-77
2022/11/22 02:00:30;;;;;;;30.70;20.63;;;;;;;2.95;100.00;99672.26;1462350;86;22109;-79
2022/11/22 02:03:00;;;;;;;34.00;21.73;;;;;;;2.97;100.00;99674.77;1486077;86;22117;-79
2022/11/22 02:05:31;;;;;;;27.63;18.60;;;;;;;2.97;100.00;99666.93;1462275;88;21405;-79
2022/11/22 02:08:11;;;;;;;34.48;21.20;;;;;;;2.95;100.00;99668.34;1484000;87;22055;-79
2022/11/22 02:10:49;;;;;;;35.33;22.97;;;;;;;2.90;100.00;99671.77;1462923;87;21424;-79
2022/11/22 02:13:17;;;;;;;34.77;22.57;;;;;;;2.88;100.00;99675.00;1478595;86;22525;-79
2022/11/22 02:15:43;;;;;;;35.30;22.07;;;;;;;2.85;100.00;99681.73;1482228;86;22060;-79
2022/11/22 02:18:10;;;;;;;33.07;22.27;;;;;;;2.78;100.00;99685.78;1509833;86;22096;-78
2022/11/22 02:20:38;;;;;;;32.23;20.63;;;;;;;2.75;100.00;99686.84;1493293;86;21352;-77
2022/11/22 02:23:53;;;;;;;32.40;21.27;;;;;;;2.74;100.00;99693.50;1506683;86;21991;-78
2022/11/22 02:26:20;;;;;;;29.30;20.23;;;;;;;2.69;100.00;99684.21;1448806;89;23061;-78
2022/11/22 02:28:48;;;;;;;30.87;19.30;;;;;;;2.68;100.00;99677.33;1485580;86;21917;-78
2022/11/22 02:31:39;;;;;;;29.47;19.53;;;;;;;2.71;100.00;99679.13;1497057;86;22080;-79
2022/11/22 02:34:06;;;;;;;31.17;19.63;;;;;;;2.74;100.00;99679.13;1469686;87;22182;-78
2022/11/22 02:36:36;;;;;;;32.13;17.93;;;;;;;2.67;100.00;99665.20;1469614;86;21824;-78
2022/11/22 02:39:04;;;;;;;32.08;20.77;;;;;;;2.69;100.00;99672.45;1476745;86;22019;-80
2022/11/22 02:41:31;;;;;;;29.23;20.80;;;;;;;2.70;100.00;99679.36;1495610;86;21330;-80
2022/11/22 02:43:58;;;;;;;28.20;19.17;;;;;;;2.68;100.00;99683.04;1505507;86;22139;-80
2022/11/22 02:46:24;;;;;;;24.13;16.87;;;;;;;2.68;100.00;99677.81;1473945;86;22667;-79
2022/11/22 02:48:50;;;;;;;28.60;19.73;;;;;;;2.71;100.00;99679.71;1477578;87;22170;-80
2022/11/22 02:51:18;;;;;;;27.43;18.00;;;;;;;2.71;100.00;99679.71;1467271;87;22823;-80
2022/11/22 02:53:48;;;;;;;28.17;18.83;;;;;;;2.72;100.00;99684.45;1490528;87;22949;-79
2022/11/22 02:56:16;;;;;;;29.03;18.73;;;;;;;2.69;100.00;99682.08;1478545;86;22166;-79
2022/11/22 02:58:43;;;;;;;29.50;19.13;;;;;;;2.76;100.00;99686.36;1460365;89;22085;-80
2022/11/22 03:01:12;;;;;;;35.13;20.53;;;;;;;2.75;100.00;99686.01;1475188;86;22079;-78
2022/11/22 03:03:38;;;;;;;32.63;17.50;;;;;;;2.74;100.00;99684.36;1465151;89;21993;-78
2022/11/22 03:06:04;;;;;;;29.07;18.57;;;;;;;2.73;100.00;99676.14;1480754;86;21819;-80
2022/11/22 03:08:30;;;;;;;31.07;18.50;;;;;;;2.74;100.00;99683.05;1459255;88;21346;-80
2022/11/22 03:10:58;;;;;;;28.80;18.50;;;;;;;2.74;100.00;99683.05;1490667;86;21851;-79
2022/11/22 03:13:25;;;;;;;30.07;17.93;;;;;;;2.77;100.00;99674.98;1434425;90;22296;-79
2022/11/22 03:15:51;;;;;;;24.57;17.37;;;;;;;2.81;100.00;99679.02;1462046;86;22049;-81
2022/11/22 03:18:17;;;;;;;27.07;17.00;;;;;;;2.81;100.00;99679.02;1506940;86;22920;-79
2022/11/22 03:20:43;;;;;;;22.73;16.00;;;;;;;2.88;100.00;99671.91;1490321;86;22059;-79
2022/11/22 03:23:09;;;;;;;24.33;17.00;;;;;;;2.89;100.00;99672.73;1464289;87;22084;-80
2022/11/22 03:25:39;;;;;;;28.63;18.50;;;;;;;2.91;100.00;99678.69;1500003;86;21345;-79
2022/11/22 03:28:06;;;;;;;31.67;18.27;;;;;;;2.88;100.00;99684.14;1464175;89;21523;-80
2022/11/22 03:30:32;;;;;;;29.90;19.30;;;;;;;2.86;100.00;99682.11;1509577;86;21848;-78
2022/11/22 03:32:58;;;;;;;24.63;17.80;;;;;;;2.81;100.00;99684.23;1467913;87;22973;-79
2022/11/22 03:35:25;;;;;;;22.70;14.47;;;;;;;2.77;100.00;99680.20;1470667;86;22032;-80
2022/11/22 03:37:51;;;;;;;28.10;18.33;;;;;;;2.66;100.00;99668.77;1461873;86;23036;-79
2022/11/22 03:40:17;;;;;;;22.37;14.27;;;;;;;2.64;100.00;99668.04;1490567;86;22056;-78
2022/11/22 03:42:43;;;;;;;22.90;15.67;;;;;;;2.66;100.00;99673.16;1492099;86;22284;-78
2022/11/22 03:45:10;;;;;;;27.53;17.20;;;;;;;2.63;100.00;99671.61;1495697;87;21973;-78
2022/11/22 03:47:36;;;;;;;26.27;16.47;;;;;;;2.62;100.00;99671.27;1486399;86;21397;-78
2022/11/22 03:50:03;;;;;;;24.07;15.23;;;;;;;2.61;100.00;99672.19;1451589;89;22893;-81
2022/11/22 03:52:29;;;;;;;21.43;14.83;;;;;;;2.54;100.00;99674.09;1486008;86;21337;-81
2022/11/22 03:54:55;;;;;;;19.10;13.83;;;;;;;2.54;100.00;99674.09;1478327;87;22113;-78
2022/11/22 03:57:21;;;;;;;19.90;13.30;;;;;;;2.57;100.00;99689.06;1490774;87;21375;-79
2022/11/22 03:59:47;;;;;;;19.63;13.73;;;;;;;2.56;100.00;99683.48;1480446;87;22102;-80
2022/11/22 04:02:13;;;;;;;18.77;12.57;;;;;;;2.56;100.00;99683.48;1460010;89;22059;-79
2022/11/22 04:04:39;;;;;;;25.90;15.97;;;;;;;2.58;100.00;99680.73;1487136;87;21353;-79
2022/11/22 04:07:05;;;;;;;23.90;16.27;;;;;;;2.58;100.00;99680.73;1461559;89;22169;-79
2022/11/22 04:09:31;;;;;;;24.03;16.17;;;;;;;2.62;100.00;99682.20;1472225;87;21446;-78
2022/11/22 04:11:58;;;;;;;21.33;14.03;;;;;;;2.62;100.00;99682.20;1463440;89;23221;-78
2022/11/22 04:17:39;;;;;;;26.77;16.87;;;;;;;2.68;100.00;99683.86;1461167;89;23182;-79
2022/11/22 04:21:32;;;;;;;23.20;16.10;;;;;;;2.76;100.00;99696.81;1486369;87;22081;-79
2022/11/22 04:22:09;;;;;;;20.30;14.10;;;;;;;2.70;100.00;99687.20;1469352;87;22999;-80
2022/11/22 04:27:20;;;;;;;23.53;15.33;;;;;;;2.74;100.00;99693.02;1462833;89;21404;-79
2022/11/22 04:29:46;;;;;;;21.77;15.50;;;;;;;2.71;100.00;99693.25;1460272;89;22157;-79
2022/11/22 04:34:57;;;;;;;19.73;12.80;;;;;;;2.70;100.00;99692.88;1459956;86;22070;-78
2022/11/22 04:37:23;;;;;;;20.30;14.13;;;;;;;2.70;100.00;99692.88;1499565;86;23530;-78
2022/11/22 04:39:49;;;;;;;20.50;14.13;;;;;;;2.71;100.00;99686.24;1505736;86;21973;-78
2022/11/22 04:44:59;;;;;;;21.77;14.73;;;;;;;2.83;100.00;99682.34;1469517;86;21364;-78
2022/11/22 04:52:56;;;;;;;25.33;14.80;;;;;;;2.89;100.00;99670.12;1472207;86;23053;-78
2022/11/22 04:55:22;;;;;;;24.70;16.27;;;;;;;2.93;100.00;99675.45;1466752;86;22015;-78
2022/11/22 04:57:49;;;;;;;24.53;14.73;;;;;;;2.96;100.00;99677.01;1489249;87;22100;-78
2022/11/22 05:00:17;;;;;;;26.43;17.57;;;;;;;2.96;100.00;99677.01;1484633;87;22105;-78
2022/11/22 05:02:43;;;;;;;22.60;15.50;;;;;;;2.97;100.00;99676.91;1479446;86;22102;-79
2022/11/22 05:05:09;;;;;;;26.57;16.73;;;;;;;2.98;100.00;99682.48;1483696;88;22110;-79
2022/11/22 05:07:35;;;;;;;26.70;16.47;;;;;;;2.99;100.00;99684.12;1481411;87;21568;-79
2022/11/22 05:10:02;;;;;;;19.47;14.23;;;;;;;3.06;100.00;99690.57;1478103;86;22074;-78
2022/11/22 05:12:28;;;;;;;27.43;17.60;;;;;;;3.09;100.00;99689.02;1497906;86;22032;-78
2022/11/22 05:14:54;;;;;;;28.23;15.83;;;;;;;3.13;100.00;99694.84;1471585;89;22891;-79
2022/11/22 05:17:20;;;;;;;28.90;17.73;;;;;;;3.15;100.00;99699.49;1478368;87;22166;-78
2022/11/22 05:19:46;;;;;;;32.53;17.33;;;;;;;3.14;100.00;99700.45;1464232;89;21441;-81
2022/11/22 05:22:12;;;;;;;28.90;17.87;;;;;;;3.12;100.00;99704.48;1462436;89;21411;-78
2022/11/22 05:24:38;;;;;;;26.43;16.83;;;;;;;3.12;100.00;99703.17;1466909;86;21969;-79
2022/11/22 05:27:04;;;;;;;27.47;15.90;;;;;;;3.14;100.00;99701.77;1452557;89;22270;-78
2022/11/22 05:29:30;;;;;;;24.53;16.30;;;;;;;3.18;100.00;99699.73;1447641;89;21419;-78
2022/11/22 05:31:56;;;;;;;26.77;15.57;;;;;;;3.23;100.00;99702.83;1470883;86;22277;-78
2022/11/22 05:34:22;;;;;;;23.37;15.07;;;;;;;3.25;100.00;99706.14;1455559;86;22411;-78
2022/11/22 05:36:48;;;;;;;25.40;16.03;;;;;;;3.23;100.00;99705.45;1453681;89;22165;-78
2022/11/22 05:39:14;;;;;;;30.57;18.33;;;;;;;3.25;100.00;99711.37;1485252;86;21359;-78
2022/11/22 05:41:54;;;;;;;34.70;19.27;;;;;;;3.25;100.00;99711.37;1470479;86;21345;-78
2022/11/22 05:44:08;;;;;;;27.63;17.67;;;;;;;3.24;100.00;99712.33;1498836;86;21383;-78
2022/11/22 05:46:34;;;;;;;25.90;18.10;;;;;;;3.22;100.00;99709.82;1499517;86;22093;-78
2022/11/22 05:49:00;;;;;;;28.13;17.33;;;;;;;3.24;100.00;99709.72;1466154;89;22074;-77
2022/11/22 05:51:31;;;;;;;28.27;18.47;;;;;;;3.28;100.00;99713.75;1492770;86;21403;-77
2022/11/22 05:53:56;;;;;;;32.45;17.92;;;;;;;3.31;100.00;99716.12;1445527;88;22138;-78
2022/11/22 05:56:23;;;;;;;29.70;18.63;;;;;;;3.32;100.00;99716.02;1469715;88;21365;-77
2022/11/22 05:58:50;;;;;;;32.80;20.47;;;;;;;3.33;100.00;99715.54;1465081;86;22271;-78
2022/11/22 06:01:22;;;;;;;26.60;17.03;;;;;;;3.40;100.00;99711.52;1479442;86;22020;-77
2022/11/22 06:03:50;;;;;;;29.50;17.80;;;;;;;3.48;100.00;99723.97;1455107;89;22081;-77
2022/11/22 06:06:17;;;;;;;35.50;20.07;;;;;;;3.48;100.00;99723.97;1471974;86;21279;-79
2022/11/22 06:08:46;;;;;;;33.20;20.17;;;;;;;3.52;100.00;99722.80;1472663;86;22054;-79
2022/11/22 06:11:20;;;;;;;37.13;20.93;;;;;;;3.54;100.00;99717.81;1465632;86;22116;-78
2022/11/22 06:13:49;;;;;;;33.57;21.03;;;;;;;3.52;100.00;99727.55;1481071;86;22076;-78
2022/11/22 06:16:16;;;;;;;38.37;21.27;;;;;;;3.53;100.00;99729.69;1476114;87;23042;-78
2022/11/22 06:18:43;;;;;;;28.43;18.67;;;;;;;3.56;100.00;99730.75;1484251;86;22314;-75
2022/11/22 06:21:19;;;;;;;30.00;19.87;;;;;;;3.59;100.00;99735.27;1463648;86;22386;-76
2022/11/22 06:23:45;;;;;;;38.93;21.40;;;;;;;3.64;100.00;99741.94;1475048;86;22069;-76
2022/11/22 06:26:16;;;;;;;42.57;23.57;;;;;;;3.66;100.00;99734.81;1468961;86;21469;-76
2022/11/22 06:28:43;;;;;;;47.50;23.70;;;;;;;3.66;100.00;99734.81;1453405;89;21398;-76
2022/11/22 06:31:35;;;;;;;46.03;27.10;;;;;;;3.60;100.00;99738.74;1462707;88;21357;-76
2022/11/22 06:34:05;;;;;;;38.00;23.60;;;;;;;3.60;100.00;99738.74;1489649;86;21434;-76
2022/11/22 06:36:36;;;;;;;45.20;22.60;;;;;;;3.64;100.00;99740.64;1491701;87;21317;-76
2022/11/22 06:39:03;;;;;;;37.27;21.83;;;;;;;3.64;100.00;99740.64;1485974;87;22119;-76
2022/11/22 06:41:36;;;;;;;38.60;25.23;;;;;;;3.68;100.00;99734.20;1492582;87;22091;-76
2022/11/22 06:44:07;;;;;;;39.70;23.87;;;;;;;3.74;100.00;99741.56;1482022;87;22329;-76
2022/11/22 06:46:34;;;;;;;43.23;24.10;;;;;;;3.81;100.00;99738.83;1486647;87;21523;-76
2022/11/22 06:49:01;;;;;;;36.23;24.50;;;;;;;3.81;100.00;99738.83;1542275;87;21830;-77
2022/11/22 06:51:30;;;;;;;42.43;23.93;;;;;;;3.86;100.00;99748.47;1493968;87;21411;-77
2022/11/22 06:53:57;;;;;;;44.03;22.50;;;;;;;3.90;100.00;99742.51;1492253;87;21360;-76
2022/11/22 06:56:44;;;;;;;42.90;25.63;;;;;;;3.89;100.00;99740.38;1489050;87;21368;-76
2022/11/22 06:59:10;;;;;;;39.67;23.53;;;;;;;3.90;100.00;99742.02;1482782;86;21353;-81
2022/11/22 07:01:37;;;;;;;37.77;23.87;;;;;;;3.90;100.00;99742.02;1486185;87;22292;-81
2022/11/22 07:04:04;;;;;;;32.33;21.20;;;;;;;3.91;100.00;99743.67;1453901;89;21464;-81
2022/11/22 07:06:34;;;;;;;42.77;22.97;;;;;;;3.88;100.00;99745.23;1492595;87;21421;-81
2022/11/22 07:09:02;;;;;;;43.73;25.10;;;;;;;3.83;100.00;99749.55;1460568;89;21413;-81
2022/11/22 07:11:31;;;;;;;44.93;24.93;;;;;;;3.85;100.00;99750.71;1508986;86;21418;-80
2022/11/22 07:14:00;;;;;;;38.73;23.37;;;;;;;3.83;100.00;99752.64;1506059;86;21360;-81
2022/11/22 07:16:27;;;;;;;41.03;24.93;;;;;;;3.86;100.00;99752.40;1449149;89;21397;-82
2022/11/22 07:18:53;;;;;;;48.93;29.10;;;;;;;3.89;100.00;99748.23;1488542;87;21850;-80
2022/11/22 07:21:23;;;;;;;51.53;31.93;;;;;;;3.91;100.00;99739.75;1486429;87;21412;-81
2022/11/22 07:23:52;;;;;;;40.50;25.23;;;;;;;4.01;100.00;99747.25;1485932;87;21397;-82
2022/11/22 07:26:20;;;;;;;41.83;25.40;;;;;;;4.05;100.00;99751.27;1492361;86;21389;-81
2022/11/22 07:28:47;;;;;;;48.30;27.17;;;;;;;4.12;100.00;99749.50;1502064;86;21345;-82
2022/11/22 07:31:16;;;;;;;43.23;24.13;;;;;;;4.15;100.00;99756.63;1494192;86;21419;-81
2022/11/22 07:33:43;;;;;;;36.67;22.83;;;;;;;4.19;100.00;99755.41;1509606;86;21344;-81
2022/11/22 07:36:18;;;;;;;38.80;22.80;;;;;;;4.17;100.00;99763.89;1501407;86;21419;-81
2022/11/22 07:38:44;;;;;;;39.23;22.60;;;;;;;4.14;100.00;99760.66;1509718;86;22479;-82
2022/11/22 07:41:11;;;;;;;35.40;22.67;;;;;;;4.15;100.00;99767.10;1427651;89;21419;-81
2022/11/22 07:43:37;;;;;;;35.93;20.40;;;;;;;4.17;100.00;99765.20;1479351;87;22720;-81
2022/11/22 07:46:07;;;;;;;37.53;23.20;;;;;;;4.23;100.00;99762.09;1482727;87;21485;-81
2022/11/22 07:48:33;;;;;;;33.20;20.77;;;;;;;4.26;100.00;99761.01;1456684;89;22219;-81
2022/11/22 07:51:07;;;;;;;32.57;20.83;;;;;;;4.32;100.00;99753.96;1505130;86;21492;-80
2022/11/22 07:53:33;;;;;;;37.00;22.10;;;;;;;4.35;100.00;99752.89;1502225;86;21544;-80
2022/11/22 07:56:03;;;;;;;41.70;22.93;;;;;;;4.37;100.00;99754.88;1507844;86;21367;-81
2022/11/22 07:58:30;;;;;;;36.83;22.80;;;;;;;4.38;100.00;99754.77;1503656;86;22417;-81
2022/11/22 08:00:56;;;;;;;43.27;25.63;;;;;;;4.38;100.00;99753.46;1449564;89;21405;-82
2022/11/22 08:03:23;;;;;;;39.10;24.63;;;;;;;4.40;100.00;99759.42;1486123;87;21448;-81
2022/11/22 08:05:49;;;;;;;36.37;23.33;;;;;;;4.39;100.00;99772.14;1486524;87;21456;-82
2022/11/22 08:08:15;;;;;;;33.67;19.73;;;;;;;4.35;100.00;99783.02;1488091;87;22334;-81
2022/11/22 08:10:42;;;;;;;27.07;17.50;;;;;;;4.32;100.00;99770.99;1468005;87;21427;-82
2022/11/22 08:13:08;;;;;;;28.67;18.50;;;;;;;4.34;100.00;99762.51;1484566;86;21522;-81
2022/11/22 08:15:35;;;;;;;29.20;19.63;;;;;;;4.38;100.00;99753.95;1502080;86;21471;-82
2022/11/22 08:18:01;;;;;;;30.53;18.37;;;;;;;4.40;100.00;99755.94;1505499;86;21329;-82
2022/11/22 08:20:27;;;;;;;30.73;20.40;;;;;;;4.41;100.00;99755.83;1511988;86;21353;-82
2022/11/22 08:22:53;;;;;;;29.00;18.40;;;;;;;4.40;100.00;99758.11;1500186;86;22204;-82
2022/11/22 08:25:19;;;;;;;32.47;19.77;;;;;;;4.45;100.00;99763.78;1505775;86;21396;-82
2022/11/22 08:27:45;;;;;;;29.57;19.20;;;;;;;4.48;100.00;99759.60;1508784;86;21330;-82
2022/11/22 08:30:11;;;;;;;29.93;18.87;;;;;;;4.46;100.00;99757.61;1505475;86;21418;-82
2022/11/22 08:32:37;;;;;;;27.17;18.10;;;;;;;4.54;100.00;99759.58;1503757;86;21382;-82
2022/11/22 08:35:05;;;;;;;31.03;19.47;;;;;;;4.60;100.00;99756.94;1508190;86;22328;-82
2022/11/22 08:37:32;;;;;;;31.10;19.20;;;;;;;4.68;100.00;99762.39;1505308;86;21477;-82
2022/11/22 08:39:58;;;;;;;29.10;18.23;;;;;;;4.77;100.00;99747.20;1507182;86;21538;-82
2022/11/22 08:42:24;;;;;;;66.43;33.57;;;;;;;4.80;100.00;99750.05;1500988;86;22049;-83
2022/11/22 08:44:50;;;;;;;27.53;17.27;;;;;;;4.84;100.00;99754.94;1510823;86;21440;-81
2022/11/22 08:47:16;;;;;;;28.40;18.77;;;;;;;4.92;100.00;99765.63;1501609;86;22334;-83
2022/11/22 08:49:42;;;;;;;30.00;20.23;;;;;;;4.96;100.00;99763.56;1500864;86;21440;-82
2022/11/22 08:52:08;;;;;;;32.37;20.33;;;;;;;5.05;100.00;99764.59;1498930;86;21257;-82
2022/11/22 08:54:36;;;;;;;27.70;18.67;;;;;;;5.14;100.00;99762.50;1503059;86;21419;-83
2022/11/22 08:57:05;;;;;;;28.43;18.80;;;;;;;5.19;100.00;99765.58;1502883;86;21433;-83
2022/11/22 08:59:31;;;;;;;29.27;18.33;;;;;;;5.23;100.00;99761.72;1499148;86;21554;-82
2022/11/22 09:01:57;;;;;;;30.70;19.13;;;;;;;5.28;100.00;99757.41;1499351;86;22462;-82
2022/11/22 09:04:23;;;;;;;28.10;18.87;;;;;;;5.31;100.00;99750.59;1498185;86;21315;-80
2022/11/22 09:06:49;;;;;;;32.97;18.50;;;;;;;5.37;99.81;99740.39;1506368;86;21460;-81
2022/11/22 09:09:16;;;;;;;26.40;17.03;;;;;;;5.52;100.00;99739.55;1508469;86;21425;-82
2022/11/22 09:11:42;;;;;;;27.07;19.20;;;;;;;5.66;100.00;99740.99;1511051;86;21447;-82
2022/11/22 09:14:08;;;;;;;28.10;18.70;;;;;;;5.78;100.00;99730.76;1507591;86;21235;-79
2022/11/22 09:16:34;;;;;;;28.50;17.93;;;;;;;5.89;99.43;99722.75;1506165;86;21344;-77
2022/11/22 09:19:00;;;;;;;38.77;24.53;;;;;;;5.99;99.23;99716.73;1504282;86;22306;-75
2022/11/22 09:21:26;;;;;;;29.23;18.30;;;;;;;6.08;98.24;99713.29;1505502;86;21462;-77
2022/11/22 09:23:53;;;;;;;25.60;17.93;;;;;;;6.14;97.43;99720.63;1507523;86;22291;-78
2022/11/22 09:26:23;;;;;;;30.93;19.53;;;;;;;6.16;97.22;99711.27;1506841;86;21374;-78
2022/11/22 09:28:50;;;;;;;26.67;19.70;;;;;;;6.16;97.06;99714.76;1505272;86;22343;-81
2022/11/22 09:31:19;;;;;;;46.60;28.90;;;;;;;6.16;95.94;99709.50;1507844;86;21521;-77
2022/11/22 09:33:48;;;;;;;27.67;19.53;;;;;;;6.15;95.02;99706.51;1505246;86;21434;-78
2022/11/22 09:36:25;;;;;;;27.90;19.00;;;;;;;6.20;96.07;99700.86;1503450;86;22380;-79
2022/11/22 09:38:52;;;;;;;65.13;39.93;;;;;;;6.28;96.87;99711.02;1512701;86;21242;-79
2022/11/22 09:41:41;;;;;;;49.67;32.03;;;;;;;6.35;96.10;99709.16;1500472;86;21367;-79
2022/11/22 09:44:27;;;;;;;74.37;47.53;;;;;;;6.43;95.67;99696.16;1507100;86;21418;-88
2022/11/22 09:47:22;;;;;;;46.07;28.40;;;;;;;6.49;95.79;99696.91;1471756;86;21477;-88
2022/11/22 09:50:14;;;;;;;24.60;17.47;;;;;;;6.50;95.21;99700.73;1428788;91;21576;-88
2022/11/22 09:53:10;;;;;;;28.97;18.30;;;;;;;6.51;94.21;99696.30;1419246;91;21347;-87
2022/11/22 09:55:48;;;;;;;31.90;20.87;;;;;;;6.50;93.36;99694.16;1427882;91;21504;-87
2022/11/22 09:58:25;;;;;;;28.03;18.87;;;;;;;6.58;94.01;99692.12;1410467;91;21512;-87
2022/11/22 10:00:56;;;;;;;51.00;30.60;;;;;;;6.62;93.08;99685.64;1428344;91;21547;-86
2022/11/22 10:03:42;;;;;;;32.33;21.40;;;;;;;6.65;92.53;99677.47;1413401;92;21459;-86
2022/11/22 10:06:25;;;;;;;42.40;28.70;;;;;;;6.63;90.73;99674.14;1413454;92;22051;-86
2022/11/22 10:09:21;;;;;;;29.70;18.50;;;;;;;6.65;91.36;99673.52;1407255;92;21510;-86
2022/11/22 10:12:18;;;;;;;30.20;20.03;;;;;;;6.62;91.04;99662.44;1414648;92;21637;-87
2022/11/22 10:15:04;;;;;;;105.53;48.93;;;;;;;6.64;91.94;99664.45;1411317;92;21709;-87
2022/11/22 10:17:50;;;;;;;32.63;19.97;;;;;;;6.59;90.92;99674.55;1411640;92;21639;-87
2022/11/22 10:20:20;;;;;;;180.93;83.60;;;;;;;6.56;91.13;99671.74;1412681;92;21473;-88
2022/11/22 10:22:48;;;;;;;133.10;61.13;;;;;;;6.52;89.49;99676.91;1406386;92;21592;-85
2022/11/22 10:25:35;;;;;;;83.63;43.57;;;;;;;6.46;88.90;99670.91;1416510;92;21621;-87
2022/11/22 10:28:33;;;;;;;144.87;72.53;;;;;;;6.45;90.67;99662.69;1498601;86;21632;-88
2022/11/22 10:31:16;;;;;;;40.77;24.73;;;;;;;6.47;90.25;99663.36;1498201;86;21610;-88
2022/11/22 10:34:16;;;;;;;46.17;26.13;;;;;;;6.50;89.52;99655.19;1491386;86;21493;-84
2022/11/22 10:37:15;;;;;;;143.90;57.53;;;;;;;6.59;91.30;99647.80;1503008;86;22432;-81
2022/11/22 10:39:58;;;;;;;85.47;40.20;;;;;;;6.61;89.34;99641.06;1498057;86;21359;-81
2022/11/22 10:43:05;;;;;;;68.33;35.43;;;;;;;6.71;91.22;99639.26;1504440;86;21426;-79
2022/11/22 10:45:39;;;;;;;50.50;29.67;;;;;;;6.77;90.18;99634.25;1499258;86;21411;-81
2022/11/22 10:48:23;;;;;;;41.67;25.83;;;;;;;7.04;90.41;99633.95;1490735;86;21447;-80
2022/11/22 10:51:29;;;;;;;96.67;51.97;;;;;;;7.27;90.79;99627.01;1495853;86;21456;-80
2022/11/22 10:54:23;;;;;;;83.13;41.77;;;;;;;7.39;89.57;99623.20;1495441;86;21330;-80
2022/11/22 10:56:57;;;;;;;105.83;57.00;;;;;;;7.42;87.54;99628.17;1499231;86;22380;-80
2022/11/22 10:59:46;;;;;;;82.17;48.50;;;;;;;7.42;87.79;99613.23;1495124;86;21405;-80
2022/11/22 11:02:53;;;;;;;33.40;20.27;;;;;;;7.41;87.17;99613.36;1478579;88;21674;-81
2022/11/22 11:05:24;;;;;;;96.80;52.67;;;;;;;7.37;85.28;99604.11;1475984;88;21621;-81
2022/11/22 11:07:52;;;;;;;56.83;35.87;;;;;;;7.34;82.83;99605.23;1490963;88;21537;-80
2022/11/22 11:10:22;;;;;;;47.23;29.97;;;;;;;7.42;84.75;99607.11;1473563;88;21620;-81
2022/11/22 11:12:55;;;;;;;34.33;22.13;;;;;;;7.52;84.71;99614.47;1476264;88;22264;-81
2022/11/22 11:15:47;;;;;;;21.83;16.40;;;;;;;7.72;85.24;99609.09;1472736;88;21309;-80
2022/11/22 11:18:35;;;;;;;23.27;15.90;;;;;;;7.98;86.52;99595.51;1495988;88;21583;-79
2022/11/22 11:21:03;;;;;;;20.00;14.50;;;;;;;8.18;84.93;99597.98;1480301;88;21442;-80
2022/11/22 11:23:29;;;;;;;24.37;16.20;;;;;;;8.20;82.32;99590.73;1449201;88;21391;-80
2022/11/22 11:25:59;;;;;;;23.83;17.07;;;;;;;8.20;82.56;99582.83;1482232;88;22307;-81
2022/11/22 11:28:29;;;;;;;25.20;17.37;;;;;;;8.14;81.98;99585.12;1459786;88;22479;-80
2022/11/22 11:31:09;;;;;;;21.52;16.45;;;;;;;8.18;83.05;99590.08;1488984;88;21560;-80
2022/11/22 11:33:39;;;;;;;23.10;14.03;;;;;;;8.12;80.99;99587.06;1485074;88;21383;-80
2022/11/22 11:36:23;;;;;;;21.80;15.03;;;;;;;8.11;80.65;99588.05;1460749;86;22203;-80
2022/11/22 11:38:57;;;;;;;22.53;16.93;;;;;;;8.13;81.25;99586.08;1471928;86;21332;-79
2022/11/22 11:41:31;;;;;;;22.83;15.50;;;;;;;8.12;81.80;99588.38;1496561;86;22357;-80
2022/11/22 11:44:03;;;;;;;20.97;15.27;;;;;;;8.11;81.50;99590.69;1509093;86;21492;-79
2022/11/22 11:46:43;;;;;;;21.73;16.17;;;;;;;8.16;82.27;99592.03;1497768;86;22609;-80
2022/11/22 11:49:19;;;;;;;26.77;17.00;;;;;;;8.17;81.79;99592.36;1496066;86;21359;-79